Time;durP1;ratioP1;P1;durP2;ratioP2;P2;SDS_P1;SDS_P2;PMS_P1;PMS_P2;Temp;Humidity;BMP_temperature;BMP_pressure;BME280_temperature;BME280_humidity;BME280_pressure;Samples;Min_cycle;Max_cycle;Signal;HPM_P1;HPM_P2
2021/11/30 00:00:15;;;;;;;16.55;9.38;;;;;;;2.90;97.72;100434.56;695959;28;4482;-53
2021/11/30 00:00:35;;;;;;;16.98;9.75;;;;;;;3.03;98.33;100428.84;696419;28;1138;-53
2021/11/30 00:00:57;;;;;;;14.77;9.23;;;;;;;3.02;98.09;100431.41;698083;28;1013;-56
2021/11/30 00:01:17;;;;;;;15.75;10.00;;;;;;;3.06;97.20;100439.25;697669;28;1035;-53
2021/11/30 00:01:38;;;;;;;19.23;11.07;;;;;;;3.17;96.48;100428.25;697644;28;1051;-54
2021/11/30 00:01:59;;;;;;;18.13;9.77;;;;;;;3.13;96.47;100431.63;697223;28;1157;-52
2021/11/30 00:02:21;;;;;;;17.13;10.02;;;;;;;3.08;97.35;100433.25;697723;28;1023;-54
2021/11/30 00:02:41;;;;;;;16.88;10.20;;;;;;;3.02;97.58;100431.41;692556;28;2348;-53
2021/11/30 00:03:02;;;;;;;16.52;9.52;;;;;;;2.94;98.73;100436.38;692939;28;1095;-53
2021/11/30 00:03:22;;;;;;;17.67;10.07;;;;;;;2.91;98.19;100436.31;692487;28;4289;-54
2021/11/30 00:03:45;;;;;;;15.77;10.02;;;;;;;2.88;98.71;100429.38;693357;28;2160;-53
2021/11/30 00:04:05;;;;;;;14.85;9.48;;;;;;;2.86;98.49;100437.91;693340;28;1177;-56
2021/11/30 00:04:29;;;;;;;15.87;9.60;;;;;;;2.89;98.28;100433.72;692850;28;1079;-52
2021/11/30 00:04:50;;;;;;;15.68;9.13;;;;;;;3.00;98.15;100427.91;695133;28;1364;-51
2021/11/30 00:05:10;;;;;;;15.27;9.35;;;;;;;3.09;97.00;100425.53;695374;28;1364;-52
2021/11/30 00:05:31;;;;;;;14.60;9.27;;;;;;;3.18;96.13;100427.44;692551;28;1210;-52
2021/11/30 00:05:51;;;;;;;14.30;9.48;;;;;;;3.23;95.69;100425.81;691559;28;1283;-54
2021/11/30 00:06:12;;;;;;;19.30;10.40;;;;;;;3.21;95.69;100425.78;691038;28;4331;-56
2021/11/30 00:06:33;;;;;;;18.70;10.03;;;;;;;3.18;96.31;100427.44;694581;28;3690;-55
2021/11/30 00:06:54;;;;;;;20.13;10.70;;;;;;;3.13;96.02;100429.03;693744;28;1439;-52
2021/11/30 00:07:15;;;;;;;21.70;10.50;;;;;;;3.08;96.02;100431.53;691250;28;909;-52
2021/11/30 00:07:35;;;;;;;19.43;10.80;;;;;;;3.04;96.65;100435.75;695317;28;1159;-56
2021/11/30 00:07:57;;;;;;;20.50;11.03;;;;;;;2.99;96.56;100437.38;694715;28;1090;-54
2021/11/30 00:08:19;;;;;;;20.23;10.73;;;;;;;2.93;96.90;100432.03;694875;28;1247;-51
2021/11/30 00:08:41;;;;;;;18.45;9.95;;;;;;;3.00;97.31;100433.91;695096;28;1270;-51
2021/11/30 00:09:22;;;;;;;16.30;10.13;;;;;;;3.00;97.51;100431.34;696851;28;1135;-53
2021/11/30 00:11:07;;;;;;;17.15;9.90;;;;;;;2.75;98.62;100439.38;697122;28;1201;-53
2021/11/30 00:11:27;;;;;;;14.75;9.57;;;;;;;2.84;98.71;100437.88;694206;28;947;-51
2021/11/30 00:11:49;;;;;;;13.63;9.30;;;;;;;2.81;97.40;100436.94;694848;28;1150;-53
2021/11/30 00:12:14;;;;;;;16.17;9.35;;;;;;;2.75;97.17;100436.81;695344;28;4614;-55
2021/11/30 00:12:36;;;;;;;14.77;9.60;;;;;;;2.70;98.24;100436.66;694344;28;3653;-56
2021/11/30 00:12:56;;;;;;;13.02;8.68;;;;;;;2.71;97.97;100434.16;694106;28;1204;-53
2021/11/30 00:13:21;;;;;;;13.77;8.83;;;;;;;2.71;98.69;100435.84;694984;28;1497;-51
2021/11/30 00:13:41;;;;;;;16.10;9.10;;;;;;;2.70;98.60;100439.25;696724;28;1174;-51
2021/11/30 00:14:03;;;;;;;14.20;9.27;;;;;;;2.86;97.78;100437.91;697260;28;1301;-54
2021/11/30 00:14:24;;;;;;;14.30;9.38;;;;;;;2.80;99.00;100433.47;697403;28;1071;-55
2021/11/30 00:14:47;;;;;;;16.00;9.55;;;;;;;2.79;98.78;100434.31;695417;28;1223;-51
2021/11/30 00:15:08;;;;;;;18.77;9.93;;;;;;;2.78;98.30;100434.28;693266;28;4306;-53
2021/11/30 00:15:28;;;;;;;15.52;9.75;;;;;;;2.76;98.26;100441.13;693570;28;1881;-55
2021/11/30 00:15:53;;;;;;;13.67;9.20;;;;;;;2.71;98.49;100441.91;695162;28;3526;-53
2021/11/30 00:16:15;;;;;;;12.45;9.15;;;;;;;2.65;97.39;100444.31;693814;28;1041;-56
2021/11/30 00:16:36;;;;;;;12.27;9.02;;;;;;;2.77;97.36;100446.34;696383;28;980;-56
2021/11/30 00:16:58;;;;;;;13.53;9.10;;;;;;;2.84;97.92;100444.78;695654;28;1297;-53
2021/11/30 00:17:19;;;;;;;16.88;9.70;;;;;;;2.94;96.40;100444.13;692050;28;1497;-53
2021/11/30 00:17:40;;;;;;;18.48;10.40;;;;;;;2.98;95.91;100438.19;691682;28;1080;-53
2021/11/30 00:18:00;;;;;;;15.57;10.10;;;;;;;3.00;95.77;100441.66;692070;28;1206;-53
2021/11/30 00:18:21;;;;;;;14.68;9.75;;;;;;;3.12;95.27;100442.81;691570;28;4478;-56
2021/11/30 00:18:41;;;;;;;14.70;9.63;;;;;;;3.06;95.26;100438.38;690961;28;3676;-51
2021/11/30 00:19:02;;;;;;;15.97;9.17;;;;;;;3.08;95.66;100441.00;695840;28;1368;-54
2021/11/30 00:19:22;;;;;;;16.92;9.85;;;;;;;3.14;95.25;100430.78;694475;28;1450;-52
2021/11/30 00:19:43;;;;;;;16.00;9.83;;;;;;;3.04;94.38;100434.88;695108;28;1499;-55
2021/11/30 00:20:04;;;;;;;15.40;9.30;;;;;;;3.06;94.91;100428.91;694142;28;1403;-52
2021/11/30 00:20:25;;;;;;;13.75;9.07;;;;;;;2.96;95.01;100433.84;694166;28;1498;-53
2021/11/30 00:20:46;;;;;;;14.53;9.27;;;;;;;2.88;95.04;100433.63;694888;28;1308;-53
2021/11/30 00:21:09;;;;;;;15.90;9.45;;;;;;;2.84;96.00;100435.31;695300;28;4405;-54
2021/11/30 00:21:30;;;;;;;16.42;9.38;;;;;;;2.82;96.33;100439.53;698751;28;1289;-51
2021/11/30 00:21:50;;;;;;;13.93;9.17;;;;;;;2.81;96.49;100432.66;696806;28;3762;-52
2021/11/30 00:22:13;;;;;;;14.45;9.50;;;;;;;2.87;97.12;100437.94;696285;28;1537;-53
2021/11/30 00:22:34;;;;;;;14.85;9.35;;;;;;;2.97;96.01;100428.69;696361;28;1311;-55
2021/11/30 00:22:54;;;;;;;15.30;9.90;;;;;;;2.91;96.15;100438.91;696307;28;1143;-53
2021/11/30 00:23:16;;;;;;;13.87;9.33;;;;;;;2.87;96.19;100437.09;696415;28;1467;-53
2021/11/30 00:23:38;;;;;;;13.30;9.30;;;;;;;2.81;96.59;100437.81;693048;28;1131;-50
2021/11/30 00:23:58;;;;;;;14.23;9.50;;;;;;;2.77;96.63;100436.00;693597;28;1093;-57
2021/11/30 00:24:19;;;;;;;15.95;10.20;;;;;;;2.73;96.81;100442.78;691956;28;4628;-51
2021/11/30 00:24:39;;;;;;;15.77;9.77;;;;;;;2.69;96.38;100434.94;690642;28;1060;-53
2021/11/30 00:25:00;;;;;;;16.15;9.45;;;;;;;2.69;96.81;100433.22;687998;28;3486;-52
2021/11/30 00:25:21;;;;;;;15.97;9.50;;;;;;;2.68;98.01;100441.81;685959;28;1359;-51
2021/11/30 00:25:42;;;;;;;17.25;10.15;;;;;;;2.70;97.75;100440.16;688603;28;1141;-55
2021/11/30 00:26:05;;;;;;;14.68;9.40;;;;;;;2.70;96.73;100429.81;688519;28;1323;-52
2021/11/30 00:26:25;;;;;;;15.70;10.20;;;;;;;2.69;96.28;100435.81;689557;28;1294;-51
2021/11/30 00:26:46;;;;;;;15.52;9.80;;;;;;;2.70;97.17;100437.56;690210;28;1306;-55
2021/11/30 00:27:06;;;;;;;14.40;9.00;;;;;;;2.76;97.09;100433.38;692362;28;4420;-53
2021/11/30 00:27:26;;;;;;;15.50;10.00;;;;;;;2.73;96.89;100432.47;693106;28;1317;-55
2021/11/30 00:27:47;;;;;;;14.73;9.83;;;;;;;2.79;97.09;100430.88;693004;28;2001;-51
2021/11/30 00:28:08;;;;;;;17.17;10.32;;;;;;;2.92;96.40;100430.28;692196;28;2095;-51
2021/11/30 00:28:29;;;;;;;15.65;9.27;;;;;;;2.92;95.82;100430.28;688660;28;1365;-52
2021/11/30 00:28:49;;;;;;;15.50;9.40;;;;;;;2.84;96.72;100431.84;690034;28;1195;-51
2021/11/30 00:29:10;;;;;;;14.50;9.47;;;;;;;2.79;97.14;100429.16;690032;28;1328;-52
2021/11/30 00:29:30;;;;;;;14.50;9.38;;;;;;;2.79;97.09;100436.91;690710;28;1294;-51
2021/11/30 00:29:50;;;;;;;15.43;9.63;;;;;;;2.87;95.87;100435.38;690342;28;1395;-51
2021/11/30 00:30:11;;;;;;;15.13;9.30;;;;;;;2.81;96.35;100432.66;690310;28;4404;-53
2021/11/30 00:30:32;;;;;;;16.27;9.57;;;;;;;2.81;96.34;100436.94;697774;28;1463;-51
2021/11/30 00:30:53;;;;;;;16.40;9.45;;;;;;;2.78;96.02;100436.88;696163;28;1906;-54
2021/11/30 00:31:13;;;;;;;15.83;9.23;;;;;;;2.83;95.69;100428.38;696970;28;2361;-51
2021/11/30 00:31:33;;;;;;;17.63;9.60;;;;;;;2.89;95.55;100428.53;696661;28;1308;-51
2021/11/30 00:31:55;;;;;;;16.90;9.60;;;;;;;2.82;96.66;100438.69;697542;28;1499;-51
2021/11/30 00:32:15;;;;;;;13.93;9.50;;;;;;;2.73;97.01;100431.59;696205;28;1167;-53
2021/11/30 00:32:36;;;;;;;14.13;9.23;;;;;;;2.74;96.84;100443.66;697576;28;1253;-52
2021/11/30 00:32:57;;;;;;;15.38;9.77;;;;;;;2.72;96.64;100440.19;694283;28;1163;-53
2021/11/30 00:33:17;;;;;;;16.05;9.90;;;;;;;2.76;96.70;100438.56;693507;28;4395;-51
2021/11/30 00:33:38;;;;;;;15.27;9.73;;;;;;;2.75;96.05;100427.34;694549;28;1139;-51
2021/11/30 00:33:58;;;;;;;14.83;9.20;;;;;;;2.94;95.12;100436.38;696201;28;1178;-52
2021/11/30 00:34:19;;;;;;;15.98;9.90;;;;;;;2.96;93.34;100433.84;694793;28;2137;-51
2021/11/30 00:34:39;;;;;;;15.40;9.87;;;;;;;2.88;95.03;100436.22;695042;28;1246;-54
2021/11/30 00:35:00;;;;;;;14.73;9.17;;;;;;;2.81;95.77;100434.34;696224;28;1061;-53
2021/11/30 00:35:23;;;;;;;14.80;9.43;;;;;;;2.73;95.94;100434.19;697357;28;1015;-51
2021/11/30 00:35:44;;;;;;;14.75;9.82;;;;;;;2.82;95.49;100426.63;696686;28;1377;-51
2021/11/30 00:36:04;;;;;;;14.90;9.10;;;;;;;2.87;95.62;100435.38;698383;28;4635;-51
2021/11/30 00:36:24;;;;;;;17.98;9.90;;;;;;;2.86;95.88;100435.34;697263;28;1137;-53
2021/11/30 00:36:45;;;;;;;17.30;9.97;;;;;;;2.81;94.87;100430.06;697401;28;1313;-53
2021/11/30 00:37:05;;;;;;;15.65;9.48;;;;;;;2.73;94.54;100437.63;698074;28;1853;-53
2021/11/30 00:37:25;;;;;;;14.90;9.40;;;;;;;2.69;95.58;100438.38;697087;28;3485;-53
2021/11/30 00:37:46;;;;;;;16.00;9.23;;;;;;;2.85;94.17;100433.59;696328;28;1178;-51
2021/11/30 00:38:08;;;;;;;16.47;9.27;;;;;;;2.82;94.72;100433.50;697405;28;1135;-52
2021/11/30 00:38:30;;;;;;;16.13;9.20;;;;;;;2.88;94.16;100437.13;696257;28;1368;-52
2021/11/30 00:38:50;;;;;;;15.75;9.75;;;;;;;2.84;93.69;100437.03;697087;28;1228;-53
2021/11/30 00:39:11;;;;;;;14.25;9.50;;;;;;;2.80;93.87;100432.63;694927;28;4478;-56
2021/11/30 00:39:31;;;;;;;15.67;9.13;;;;;;;2.79;94.37;100433.47;698619;28;1114;-51
2021/11/30 00:39:52;;;;;;;17.05;9.30;;;;;;;2.76;94.22;100435.97;694655;28;1070;-51
2021/11/30 00:40:12;;;;;;;14.53;9.93;;;;;;;2.78;93.60;100439.44;694367;28;3022;-52
2021/11/30 00:40:35;;;;;;;14.43;9.88;;;;;;;2.70;94.50;100434.97;692107;28;3129;-51
2021/11/30 00:40:55;;;;;;;15.27;9.80;;;;;;;2.72;95.44;100433.28;693919;28;1217;-51
2021/11/30 00:41:16;;;;;;;15.05;9.80;;;;;;;2.72;94.38;100432.44;694036;28;1396;-51
2021/11/30 00:41:36;;;;;;;16.77;9.57;;;;;;;2.70;95.51;100440.16;695298;28;1004;-51
2021/11/30 00:41:59;;;;;;;15.03;9.00;;;;;;;2.80;94.42;100427.47;696857;28;1205;-50
2021/11/30 00:42:23;;;;;;;15.30;9.20;;;;;;;2.87;93.85;100432.78;696786;28;4829;-51
2021/11/30 00:42:44;;;;;;;14.00;9.10;;;;;;;2.82;94.83;100429.22;697409;28;1186;-51
2021/11/30 00:43:04;;;;;;;14.40;9.43;;;;;;;2.80;94.62;100432.63;698528;28;1047;-50
2021/11/30 00:43:31;;;;;;;18.80;9.53;;;;;;;2.75;93.97;100431.63;696684;28;3355;-54
2021/11/30 00:43:54;;;;;;;14.45;9.35;;;;;;;2.66;94.02;100432.28;696654;28;2577;-55
2021/11/30 00:44:16;;;;;;;13.73;9.40;;;;;;;2.73;94.40;100437.63;697900;28;1268;-53
2021/11/30 00:44:38;;;;;;;15.63;9.50;;;;;;;2.66;94.55;100438.31;698972;28;1016;-55
2021/11/30 00:45:01;;;;;;;18.52;10.15;;;;;;;2.62;95.09;100436.50;698127;28;976;-51
2021/11/30 00:45:24;;;;;;;17.38;9.77;;;;;;;2.61;94.85;100433.91;697194;28;4301;-54
2021/11/30 00:45:54;;;;;;;16.08;9.82;;;;;;;2.55;95.23;100439.78;692698;28;1228;-51
2021/11/30 00:46:36;;;;;;;15.93;9.85;;;;;;;2.61;95.53;100439.91;694568;28;3580;-51
2021/11/30 00:46:57;;;;;;;15.93;9.93;;;;;;;2.65;95.10;100439.16;692752;28;1213;-56
2021/11/30 00:47:19;;;;;;;14.93;9.60;;;;;;;2.69;95.14;100445.28;694493;28;4185;-51
2021/11/30 00:47:44;;;;;;;18.33;10.10;;;;;;;2.67;94.25;100444.34;694917;28;1106;-54
2021/11/30 00:48:10;;;;;;;15.07;9.82;;;;;;;2.62;94.32;100449.41;697482;28;4434;-54
2021/11/30 00:48:31;;;;;;;15.68;9.50;;;;;;;2.57;93.80;100456.16;696473;28;1115;-53
2021/11/30 00:48:51;;;;;;;14.38;9.65;;;;;;;2.53;95.47;100444.03;696613;28;1172;-52
2021/11/30 00:49:11;;;;;;;14.85;9.68;;;;;;;2.67;94.60;100437.50;696107;28;1212;-55
2021/11/30 00:49:32;;;;;;;17.67;10.23;;;;;;;2.86;92.73;100433.63;696716;28;3381;-50
2021/11/30 00:49:52;;;;;;;18.83;10.75;;;;;;;2.85;92.20;100437.06;697035;28;2130;-50
2021/11/30 00:50:13;;;;;;;17.77;10.47;;;;;;;2.85;93.77;100438.75;695294;28;1384;-53
2021/11/30 00:50:37;;;;;;;18.13;10.30;;;;;;;2.79;94.13;100443.78;693539;28;1534;-52
2021/11/30 00:51:04;;;;;;;16.38;10.50;;;;;;;2.72;94.46;100447.91;694089;28;1918;-52
2021/11/30 00:51:25;;;;;;;19.20;11.13;;;;;;;2.67;94.23;100445.25;694047;28;4879;-53
2021/11/30 00:51:47;;;;;;;18.63;10.45;;;;;;;2.67;94.41;100437.50;693779;28;1453;-55
2021/11/30 00:52:07;;;;;;;17.38;10.15;;;;;;;2.70;94.52;100440.16;694030;28;1385;-53
2021/11/30 00:52:28;;;;;;;16.10;9.82;;;;;;;2.62;93.52;100444.25;697463;28;1059;-54
2021/11/30 00:52:49;;;;;;;15.50;9.33;;;;;;;2.71;93.12;100434.16;697381;28;3197;-53
2021/11/30 00:53:10;;;;;;;14.43;9.47;;;;;;;2.78;92.86;100429.13;696132;28;980;-53
2021/11/30 00:53:31;;;;;;;15.77;9.65;;;;;;;2.80;92.13;100427.47;697874;28;1427;-56
2021/11/30 00:53:52;;;;;;;16.23;9.88;;;;;;;2.75;93.72;100437.66;696889;28;1413;-55
2021/11/30 00:54:14;;;;;;;17.42;10.07;;;;;;;2.69;93.95;100438.38;696687;28;4512;-55
2021/11/30 00:54:35;;;;;;;17.55;9.60;;;;;;;2.62;94.11;100439.09;697441;28;1095;-53
2021/11/30 00:54:56;;;;;;;17.23;10.18;;;;;;;2.66;94.55;100438.31;699566;28;1039;-53
2021/11/30 00:55:17;;;;;;;17.55;10.13;;;;;;;2.66;93.51;100440.91;697821;28;1155;-55
2021/11/30 00:55:38;;;;;;;18.27;9.77;;;;;;;2.64;94.48;100439.97;697163;28;1123;-54
2021/11/30 00:55:58;;;;;;;17.73;9.82;;;;;;;2.78;94.32;100434.28;697163;28;3103;-52
2021/11/30 00:56:19;;;;;;;18.03;9.77;;;;;;;2.86;93.39;100435.34;696137;28;986;-53
2021/11/30 00:56:45;;;;;;;19.40;10.10;;;;;;;2.79;92.62;100441.19;696283;28;1062;-53
2021/11/30 00:57:06;;;;;;;18.83;10.32;;;;;;;2.75;92.96;100434.22;696054;28;4446;-51
2021/11/30 00:57:26;;;;;;;19.23;10.00;;;;;;;2.69;93.67;100438.38;697035;28;1043;-55
2021/11/30 00:57:47;;;;;;;20.27;10.30;;;;;;;2.68;93.64;100439.22;698127;28;1249;-52
2021/11/30 00:58:07;;;;;;;16.97;9.77;;;;;;;2.69;93.50;100440.97;697615;28;1051;-52
2021/11/30 00:58:28;;;;;;;17.10;9.30;;;;;;;2.62;93.72;100439.09;696100;28;955;-55
2021/11/30 00:58:49;;;;;;;17.50;10.05;;;;;;;2.67;94.00;100441.78;697328;28;2037;-52
2021/11/30 00:59:12;;;;;;;17.17;9.98;;;;;;;2.72;93.03;100435.88;697538;28;3562;-54
2021/11/30 00:59:32;;;;;;;16.90;10.15;;;;;;;2.68;93.14;100435.78;696571;28;1219;-51
2021/11/30 00:59:53;;;;;;;15.20;9.47;;;;;;;2.60;92.71;100434.72;697935;28;987;-55
2021/11/30 01:00:17;;;;;;;14.60;9.13;;;;;;;2.57;93.02;100435.50;697574;28;5238;-54
2021/11/30 01:00:38;;;;;;;14.60;9.32;;;;;;;2.56;93.33;100441.50;697617;28;1138;-55
2021/11/30 01:00:58;;;;;;;16.20;9.63;;;;;;;2.53;94.63;100444.03;694619;28;1156;-51
2021/11/30 01:01:20;;;;;;;17.25;9.82;;;;;;;2.54;94.55;100433.72;693960;28;1147;-54
2021/11/30 01:01:40;;;;;;;18.73;9.82;;;;;;;2.58;93.98;100437.28;693620;28;1080;-52
2021/11/30 01:02:01;;;;;;;17.02;10.20;;;;;;;2.58;94.25;100441.56;693978;28;1771;-54
2021/11/30 01:02:21;;;;;;;16.27;10.03;;;;;;;2.54;94.41;100438.03;693908;28;3786;-53
2021/11/30 01:02:42;;;;;;;17.02;9.73;;;;;;;2.56;93.85;100444.09;694502;28;1324;-55
2021/11/30 01:03:06;;;;;;;15.33;9.90;;;;;;;2.55;94.26;100445.81;693444;28;4355;-52
2021/11/30 01:03:26;;;;;;;19.52;9.82;;;;;;;2.57;94.73;100444.97;694617;28;1284;-55
2021/11/30 01:03:47;;;;;;;15.23;9.37;;;;;;;2.63;94.39;100433.09;693828;28;1194;-56
2021/11/30 01:04:12;;;;;;;16.30;9.68;;;;;;;2.66;94.48;100434.84;695607;28;801;-53
2021/11/30 01:04:33;;;;;;;16.00;9.45;;;;;;;2.80;92.75;100432.63;692233;28;1359;-52
2021/11/30 01:04:53;;;;;;;15.85;9.35;;;;;;;2.79;93.56;100428.28;697079;28;907;-52
2021/11/30 01:05:15;;;;;;;16.80;10.00;;;;;;;2.79;93.19;100433.47;690719;28;3311;-53
2021/11/30 01:05:36;;;;;;;15.63;9.65;;;;;;;2.69;92.96;100438.38;691713;28;1501;-53
2021/11/30 01:05:57;;;;;;;17.95;9.93;;;;;;;2.69;93.01;100433.22;692878;28;1425;-52
2021/11/30 01:06:17;;;;;;;18.37;11.00;;;;;;;2.70;93.11;100428.94;694579;28;5332;-52
2021/11/30 01:06:39;;;;;;;16.23;10.90;;;;;;;2.71;93.48;100436.75;693748;28;856;-54
2021/11/30 01:07:00;;;;;;;15.48;9.48;;;;;;;2.94;91.41;100427.78;694470;28;955;-51
2021/11/30 01:07:23;;;;;;;20.75;10.20;;;;;;;2.92;91.83;100427.72;694749;28;1264;-52
2021/11/30 01:07:43;;;;;;;21.25;10.30;;;;;;;2.92;92.39;100419.97;694550;28;1063;-52
2021/11/30 01:08:05;;;;;;;18.75;10.48;;;;;;;2.84;92.27;100424.13;694457;28;761;-53
2021/11/30 01:08:25;;;;;;;17.98;10.02;;;;;;;2.84;92.51;100419.81;694719;28;3565;-53
2021/11/30 01:08:46;;;;;;;16.37;9.80;;;;;;;2.78;91.92;100421.38;694990;28;1452;-54
2021/11/30 01:09:07;;;;;;;18.17;10.00;;;;;;;2.69;92.88;100417.75;690448;28;4450;-52
2021/11/30 01:09:27;;;;;;;17.23;10.52;;;;;;;2.68;92.91;100422.88;694725;28;1850;-52
2021/11/30 01:09:48;;;;;;;16.27;9.73;;;;;;;2.75;91.99;100417.00;694359;28;1174;-52
2021/11/30 01:10:12;;;;;;;16.13;9.93;;;;;;;2.76;92.26;100420.47;694699;28;1412;-54
2021/11/30 01:10:35;;;;;;;16.98;9.82;;;;;;;2.68;92.62;100428.03;694235;28;1183;-54
2021/11/30 01:10:56;;;;;;;15.20;9.20;;;;;;;2.72;92.46;100419.53;695093;28;1906;-52
2021/11/30 01:11:16;;;;;;;14.87;9.20;;;;;;;2.90;91.12;100416.50;697430;28;3027;-56
2021/11/30 01:11:37;;;;;;;14.95;9.32;;;;;;;2.83;92.18;100419.78;694911;28;3658;-54
2021/11/30 01:11:58;;;;;;;16.67;9.50;;;;;;;2.72;92.68;100412.63;693750;28;1678;-53
2021/11/30 01:12:18;;;;;;;17.73;9.70;;;;;;;2.67;93.00;100415.94;692828;28;4329;-52
2021/11/30 01:12:39;;;;;;;16.60;9.23;;;;;;;2.63;93.19;100420.19;691043;28;1164;-54
2021/11/30 01:12:59;;;;;;;14.13;8.90;;;;;;;2.59;93.67;100426.13;691725;28;1120;-55
2021/11/30 01:13:20;;;;;;;13.87;9.57;;;;;;;2.58;92.90;100416.63;692487;28;1143;-53
2021/11/30 01:13:40;;;;;;;16.17;9.57;;;;;;;2.56;93.24;100426.03;695330;28;842;-53
2021/11/30 01:14:01;;;;;;;16.63;9.57;;;;;;;2.53;93.27;100420.78;693937;28;1275;-56
2021/11/30 01:14:22;;;;;;;17.13;9.63;;;;;;;2.54;93.82;100425.13;695333;28;1962;-53
2021/11/30 01:14:43;;;;;;;16.50;9.63;;;;;;;2.49;94.24;100416.41;694565;28;3533;-56
2021/11/30 01:15:09;;;;;;;16.93;10.00;;;;;;;2.60;93.68;100411.50;691808;28;4604;-55
2021/11/30 01:15:30;;;;;;;17.45;10.18;;;;;;;2.65;92.82;100415.06;691703;28;1322;-55
2021/11/30 01:15:50;;;;;;;18.73;10.45;;;;;;;2.78;91.60;100405.88;691588;28;1171;-53
2021/11/30 01:16:11;;;;;;;20.83;10.50;;;;;;;2.73;92.18;100411.81;689088;28;1067;-52
2021/11/30 01:16:33;;;;;;;19.17;10.60;;;;;;;2.68;93.37;100405.66;688689;28;1179;-54
2021/11/30 01:16:53;;;;;;;18.33;10.45;;;;;;;2.66;92.91;100406.47;693919;28;1098;-56
2021/11/30 01:17:14;;;;;;;20.07;10.60;;;;;;;2.75;91.80;100406.69;694978;28;1207;-54
2021/11/30 01:17:34;;;;;;;22.13;11.00;;;;;;;2.72;92.25;100404.03;693925;28;3309;-52
2021/11/30 01:17:54;;;;;;;19.30;10.13;;;;;;;2.64;92.63;100400.41;694556;28;972;-56
2021/11/30 01:18:15;;;;;;;17.88;9.93;;;;;;;2.71;93.08;100391.97;694395;28;4429;-52
2021/11/30 01:18:36;;;;;;;17.00;9.43;;;;;;;2.72;92.93;100396.28;695891;28;1315;-55
2021/11/30 01:18:56;;;;;;;16.65;9.50;;;;;;;2.68;93.42;100403.09;695867;28;1170;-56
2021/11/30 01:19:17;;;;;;;18.08;9.45;;;;;;;2.70;92.13;100396.25;697773;28;1336;-51
2021/11/30 01:19:38;;;;;;;15.73;9.05;;;;;;;2.70;92.55;100401.44;698489;28;1044;-51
2021/11/30 01:19:58;;;;;;;17.03;9.30;;;;;;;2.63;92.01;100398.66;696336;28;1273;-53
2021/11/30 01:20:19;;;;;;;16.40;9.00;;;;;;;2.61;91.84;100397.75;696140;28;1436;-55
2021/11/30 01:20:40;;;;;;;16.30;8.90;;;;;;;2.63;92.01;100402.13;695337;28;3259;-55
2021/11/30 01:21:02;;;;;;;16.03;9.30;;;;;;;2.69;91.46;100402.25;694701;28;1279;-52
2021/11/30 01:21:22;;;;;;;15.38;9.20;;;;;;;2.64;91.25;100398.69;693967;28;4627;-50
2021/11/30 01:21:43;;;;;;;16.90;9.17;;;;;;;2.64;92.12;100403.84;695503;28;1176;-53
2021/11/30 01:22:05;;;;;;;17.42;9.05;;;;;;;2.82;91.46;100393.06;694386;28;1238;-53
2021/11/30 01:22:25;;;;;;;16.00;8.48;;;;;;;2.90;91.42;100395.84;694547;28;1186;-53
2021/11/30 01:22:46;;;;;;;15.03;8.50;;;;;;;3.03;90.25;100397.84;694443;28;1163;-52
2021/11/30 01:23:07;;;;;;;14.73;8.77;;;;;;;2.97;89.24;100391.69;691630;28;1417;-52
2021/11/30 01:23:30;;;;;;;16.65;9.40;;;;;;;2.89;90.58;100394.09;692277;28;1344;-53
2021/11/30 01:23:51;;;;;;;15.90;8.68;;;;;;;2.94;89.55;100391.63;689724;28;3310;-54
2021/11/30 01:24:12;;;;;;;15.00;8.80;;;;;;;2.89;90.91;100391.50;688014;28;4570;-54
2021/11/30 01:24:33;;;;;;;15.30;9.48;;;;;;;2.79;93.11;100394.72;689074;28;1062;-51
2021/11/30 01:24:53;;;;;;;16.05;8.98;;;;;;;2.75;92.58;100392.91;692709;28;1206;-52
2021/11/30 01:25:14;;;;;;;15.30;8.90;;;;;;;2.70;93.35;100396.25;694910;28;1187;-51
2021/11/30 01:25:35;;;;;;;15.07;8.65;;;;;;;2.68;92.97;100400.50;692412;28;1207;-55
2021/11/30 01:25:58;;;;;;;15.38;8.73;;;;;;;2.61;93.26;100392.59;694884;28;1151;-54
2021/11/30 01:26:18;;;;;;;16.73;8.88;;;;;;;2.56;92.71;100392.47;693544;28;1360;-53
2021/11/30 01:26:39;;;;;;;15.03;8.27;;;;;;;2.64;91.95;100388.34;694364;28;1326;-53
2021/11/30 01:26:59;;;;;;;16.60;8.82;;;;;;;2.63;92.26;100396.97;693734;28;3695;-53
2021/11/30 01:27:19;;;;;;;14.63;8.30;;;;;;;2.71;91.71;100390.28;693642;28;4387;-52
2021/11/30 01:27:40;;;;;;;15.13;8.33;;;;;;;2.83;91.07;100388.78;694196;28;992;-55
2021/11/30 01:28:01;;;;;;;15.93;8.77;;;;;;;2.83;91.04;100388.78;694924;28;1233;-57
2021/11/30 01:28:21;;;;;;;15.65;8.27;;;;;;;2.77;90.39;100392.13;693872;28;1150;-54
2021/11/30 01:28:41;;;;;;;15.77;8.60;;;;;;;2.71;91.13;100392.84;696644;28;1248;-54
2021/11/30 01:29:03;;;;;;;16.80;8.77;;;;;;;2.71;91.80;100390.28;697620;28;1185;-52
2021/11/30 01:29:24;;;;;;;15.90;8.73;;;;;;;2.77;90.94;100378.31;695242;28;1276;-52
2021/11/30 01:29:44;;;;;;;14.17;8.17;;;;;;;2.75;91.40;100385.16;694991;28;1130;-51
2021/11/30 01:30:07;;;;;;;13.82;8.18;;;;;;;2.72;90.92;100392.00;695630;28;4776;-53
2021/11/30 01:30:28;;;;;;;14.95;8.05;;;;;;;2.81;89.49;100383.59;695878;28;1369;-54
2021/11/30 01:30:49;;;;;;;14.48;8.25;;;;;;;2.89;89.42;100381.19;694179;28;1987;-51
2021/11/30 01:31:09;;;;;;;12.52;7.80;;;;;;;2.89;89.91;100389.81;694169;28;1353;-51
2021/11/30 01:31:30;;;;;;;14.83;7.67;;;;;;;2.99;88.19;100384.81;694152;28;1448;-53
2021/11/30 01:31:50;;;;;;;14.80;7.93;;;;;;;2.93;89.34;100385.56;695065;28;1170;-56
2021/11/30 01:32:11;;;;;;;15.10;8.10;;;;;;;2.91;88.94;100387.25;692671;28;1170;-55
2021/11/30 01:32:31;;;;;;;15.70;8.50;;;;;;;2.83;89.55;100383.63;691418;28;1572;-55
2021/11/30 01:32:52;;;;;;;17.30;8.65;;;;;;;2.76;90.43;100379.19;694212;28;1277;-56
2021/11/30 01:33:12;;;;;;;16.23;8.50;;;;;;;2.71;89.54;100379.94;688510;28;4501;-55
2021/11/30 01:33:35;;;;;;;15.00;8.15;;;;;;;2.69;89.95;100381.59;691955;28;1172;-52
2021/11/30 01:33:55;;;;;;;16.10;8.55;;;;;;;2.87;88.96;100380.28;691297;28;1312;-52
2021/11/30 01:34:16;;;;;;;18.90;9.03;;;;;;;2.92;88.99;100381.22;693229;28;1163;-52
2021/11/30 01:34:36;;;;;;;17.20;8.68;;;;;;;2.98;88.41;100386.53;694074;28;1217;-52
2021/11/30 01:34:57;;;;;;;17.40;8.80;;;;;;;3.00;88.77;100386.56;695670;28;1300;-53
2021/11/30 01:35:19;;;;;;;16.85;8.82;;;;;;;2.89;88.23;100384.66;696870;28;1158;-54
2021/11/30 01:35:42;;;;;;;15.98;8.40;;;;;;;2.80;89.07;100383.56;697821;28;1204;-56
2021/11/30 01:36:04;;;;;;;17.10;8.73;;;;;;;2.74;90.30;100384.28;696383;28;4786;-52
2021/11/30 01:36:24;;;;;;;18.98;8.95;;;;;;;2.76;90.08;100379.19;697111;28;3718;-53
2021/11/30 01:36:45;;;;;;;18.58;8.85;;;;;;;2.69;90.72;100385.91;696583;28;1233;-51
2021/11/30 01:37:05;;;;;;;16.30;8.77;;;;;;;2.65;91.73;100384.94;696783;28;1500;-54
2021/11/30 01:37:26;;;;;;;17.60;8.27;;;;;;;2.69;90.35;100383.31;697445;28;1316;-51
2021/11/30 01:37:46;;;;;;;14.53;7.70;;;;;;;2.68;89.79;100392.75;698579;28;1178;-52
2021/11/30 01:38:07;;;;;;;15.90;8.13;;;;;;;2.74;89.42;100386.84;697961;28;1222;-56
2021/11/30 01:38:28;;;;;;;15.32;7.53;;;;;;;2.80;89.27;100384.44;694302;28;1285;-52
2021/11/30 01:38:49;;;;;;;13.98;7.65;;;;;;;2.79;88.48;100390.44;694547;28;1100;-56
2021/11/30 01:39:10;;;;;;;16.90;7.80;;;;;;;2.74;90.40;100394.59;692497;28;4568;-54
2021/11/30 01:39:31;;;;;;;18.98;8.07;;;;;;;2.66;88.00;100386.72;693603;28;3763;-53
2021/11/30 01:39:52;;;;;;;14.88;7.70;;;;;;;2.77;88.30;100384.38;693046;28;1214;-53
2021/11/30 01:40:17;;;;;;;14.23;7.60;;;;;;;2.72;90.22;100386.81;694113;28;2829;-51
2021/11/30 01:40:37;;;;;;;13.68;7.68;;;;;;;2.66;89.82;100384.13;697455;28;1333;-53
2021/11/30 01:41:00;;;;;;;14.98;7.55;;;;;;;2.67;89.30;100388.47;696452;28;1617;-53
2021/11/30 01:41:21;;;;;;;14.98;8.07;;;;;;;2.68;89.42;100386.72;694394;28;984;-53
2021/11/30 01:41:43;;;;;;;18.40;8.65;;;;;;;2.65;89.38;100395.28;694719;28;1178;-53
2021/11/30 01:42:04;;;;;;;18.05;8.20;;;;;;;2.63;87.87;100384.06;691109;28;4582;-56
2021/11/30 01:42:25;;;;;;;14.15;7.55;;;;;;;2.67;87.78;100383.28;690298;28;3387;-54
2021/11/30 01:42:48;;;;;;;13.98;7.47;;;;;;;2.72;87.93;100392.00;692915;28;1206;-55
2021/11/30 01:43:15;;;;;;;16.20;8.15;;;;;;;2.67;88.55;100384.97;688714;28;1330;-54